sensor_id;sensor_type;location;lat;lon;timestamp;P1;durP1;ratioP1;P2;durP2;ratioP2
59147;SDS011;44930;52.878;6.168;2022-12-24T00:00:24;15.57;;;11.07;;
59147;SDS011;44930;52.878;6.168;2022-12-24T00:02:50;14.90;;;10.05;;
59147;SDS011;44930;52.878;6.168;2022-12-24T00:05:16;14.02;;;9.85;;
59147;SDS011;44930;52.878;6.168;2022-12-24T00:07:41;15.90;;;11.15;;
59147;SDS011;44930;52.878;6.168;2022-12-24T00:10:07;18.50;;;11.35;;
59147;SDS011;44930;52.878;6.168;2022-12-24T00:12:34;15.20;;;11.27;;
59147;SDS011;44930;52.878;6.168;2022-12-24T00:14:59;18.50;;;13.48;;
59147;SDS011;44930;52.878;6.168;2022-12-24T00:17:25;22.02;;;13.10;;
59147;SDS011;44930;52.878;6.168;2022-12-24T00:19:51;18.25;;;12.90;;
59147;SDS011;44930;52.878;6.168;2022-12-24T00:22:16;24.17;;;13.93;;
59147;SDS011;44930;52.878;6.168;2022-12-24T00:24:42;18.30;;;12.82;;
59147;SDS011;44930;52.878;6.168;2022-12-24T00:27:07;19.98;;;14.13;;
59147;SDS011;44930;52.878;6.168;2022-12-24T00:29:33;19.02;;;13.63;;
59147;SDS011;44930;52.878;6.168;2022-12-24T00:31:58;18.80;;;13.27;;
59147;SDS011;44930;52.878;6.168;2022-12-24T00:34:24;20.92;;;14.18;;
59147;SDS011;44930;52.878;6.168;2022-12-24T00:36:50;18.73;;;12.30;;
59147;SDS011;44930;52.878;6.168;2022-12-24T00:39:16;18.13;;;13.50;;
59147;SDS011;44930;52.878;6.168;2022-12-24T00:41:42;18.77;;;12.50;;
59147;SDS011;44930;52.878;6.168;2022-12-24T00:44:07;19.33;;;12.73;;
59147;SDS011;44930;52.878;6.168;2022-12-24T00:46:39;19.48;;;13.77;;
59147;SDS011;44930;52.878;6.168;2022-12-24T00:49:05;18.85;;;13.20;;
59147;SDS011;44930;52.878;6.168;2022-12-24T00:51:32;21.95;;;13.88;;
59147;SDS011;44930;52.878;6.168;2022-12-24T00:53:59;23.83;;;14.75;;
59147;SDS011;44930;52.878;6.168;2022-12-24T00:56:25;24.58;;;15.10;;
59147;SDS011;44930;52.878;6.168;2022-12-24T00:58:50;25.20;;;16.08;;
59147;SDS011;44930;52.878;6.168;2022-12-24T01:01:16;24.70;;;15.25;;
59147;SDS011;44930;52.878;6.168;2022-12-24T01:03:42;22.85;;;15.55;;
59147;SDS011;44930;52.878;6.168;2022-12-24T01:06:12;23.75;;;15.02;;
59147;SDS011;44930;52.878;6.168;2022-12-24T01:08:40;24.98;;;15.18;;
59147;SDS011;44930;52.878;6.168;2022-12-24T01:11:06;26.83;;;16.63;;
59147;SDS011;44930;52.878;6.168;2022-12-24T01:13:33;24.42;;;16.67;;
59147;SDS011;44930;52.878;6.168;2022-12-24T01:15:59;26.77;;;14.93;;
59147;SDS011;44930;52.878;6.168;2022-12-24T01:18:25;27.90;;;15.80;;
59147;SDS011;44930;52.878;6.168;2022-12-24T01:21:02;24.77;;;15.15;;
59147;SDS011;44930;52.878;6.168;2022-12-24T01:23:28;23.08;;;14.45;;
59147;SDS011;44930;52.878;6.168;2022-12-24T01:25:54;19.75;;;13.95;;
59147;SDS011;44930;52.878;6.168;2022-12-24T01:28:24;25.38;;;14.10;;
59147;SDS011;44930;52.878;6.168;2022-12-24T01:30:50;22.67;;;14.38;;
59147;SDS011;44930;52.878;6.168;2022-12-24T01:33:16;21.33;;;12.68;;
59147;SDS011;44930;52.878;6.168;2022-12-24T01:35:41;20.85;;;12.77;;
59147;SDS011;44930;52.878;6.168;2022-12-24T01:38:08;18.13;;;11.80;;
59147;SDS011;44930;52.878;6.168;2022-12-24T01:40:36;18.35;;;11.35;;
59147;SDS011;44930;52.878;6.168;2022-12-24T01:43:21;17.92;;;10.48;;
59147;SDS011;44930;52.878;6.168;2022-12-24T01:46:11;17.92;;;9.57;;
59147;SDS011;44930;52.878;6.168;2022-12-24T01:49:04;16.77;;;10.63;;
59147;SDS011;44930;52.878;6.168;2022-12-24T01:51:34;20.60;;;11.20;;
59147;SDS011;44930;52.878;6.168;2022-12-24T01:54:08;17.25;;;9.90;;
59147;SDS011;44930;52.878;6.168;2022-12-24T01:57:00;18.88;;;10.90;;
59147;SDS011;44930;52.878;6.168;2022-12-24T01:59:31;15.75;;;8.93;;
59147;SDS011;44930;52.878;6.168;2022-12-24T02:01:58;17.95;;;7.65;;
59147;SDS011;44930;52.878;6.168;2022-12-24T02:04:30;18.27;;;10.77;;
59147;SDS011;44930;52.878;6.168;2022-12-24T02:06:59;19.40;;;9.10;;
59147;SDS011;44930;52.878;6.168;2022-12-24T02:09:24;16.75;;;8.93;;
59147;SDS011;44930;52.878;6.168;2022-12-24T02:11:50;17.23;;;7.68;;
59147;SDS011;44930;52.878;6.168;2022-12-24T02:14:16;19.05;;;8.25;;
59147;SDS011;44930;52.878;6.168;2022-12-24T02:27:24;25.50;;;7.57;;
59147;SDS011;44930;52.878;6.168;2022-12-24T02:32:35;23.10;;;5.60;;
59147;SDS011;44930;52.878;6.168;2022-12-24T02:40:37;38.85;;;5.88;;
59147;SDS011;44930;52.878;6.168;2022-12-24T02:43:10;24.98;;;5.25;;
59147;SDS011;44930;52.878;6.168;2022-12-24T02:45:41;22.58;;;4.05;;
59147;SDS011;44930;52.878;6.168;2022-12-24T02:48:11;33.25;;;5.50;;
59147;SDS011;44930;52.878;6.168;2022-12-24T02:50:52;30.55;;;4.20;;
59147;SDS011;44930;52.878;6.168;2022-12-24T02:53:19;40.88;;;6.28;;
59147;SDS011;44930;52.878;6.168;2022-12-24T02:55:48;24.17;;;4.63;;
59147;SDS011;44930;52.878;6.168;2022-12-24T02:58:43;34.30;;;6.22;;
59147;SDS011;44930;52.878;6.168;2022-12-24T03:01:29;31.17;;;4.95;;
59147;SDS011;44930;52.878;6.168;2022-12-24T03:04:11;32.95;;;4.63;;
59147;SDS011;44930;52.878;6.168;2022-12-24T03:09:55;26.95;;;5.53;;
59147;SDS011;44930;52.878;6.168;2022-12-24T03:12:37;32.15;;;4.68;;
59147;SDS011;44930;52.878;6.168;2022-12-24T03:15:06;32.85;;;5.05;;
59147;SDS011;44930;52.878;6.168;2022-12-24T03:17:33;26.80;;;4.78;;
59147;SDS011;44930;52.878;6.168;2022-12-24T03:20:03;35.65;;;5.38;;
59147;SDS011;44930;52.878;6.168;2022-12-24T03:22:31;38.53;;;6.55;;
59147;SDS011;44930;52.878;6.168;2022-12-24T03:24:59;31.05;;;4.50;;
59147;SDS011;44930;52.878;6.168;2022-12-24T03:27:25;41.33;;;5.40;;
59147;SDS011;44930;52.878;6.168;2022-12-24T03:29:53;25.90;;;3.85;;
59147;SDS011;44930;52.878;6.168;2022-12-24T03:32:23;27.13;;;5.22;;
59147;SDS011;44930;52.878;6.168;2022-12-24T03:34:51;26.60;;;4.72;;
59147;SDS011;44930;52.878;6.168;2022-12-24T03:37:18;30.65;;;6.10;;
59147;SDS011;44930;52.878;6.168;2022-12-24T03:39:43;31.83;;;4.82;;
59147;SDS011;44930;52.878;6.168;2022-12-24T03:42:09;24.98;;;5.47;;
59147;SDS011;44930;52.878;6.168;2022-12-24T03:44:35;27.40;;;4.50;;
59147;SDS011;44930;52.878;6.168;2022-12-24T03:47:01;31.48;;;5.05;;
59147;SDS011;44930;52.878;6.168;2022-12-24T03:49:26;37.13;;;6.32;;
59147;SDS011;44930;52.878;6.168;2022-12-24T03:51:52;28.45;;;6.10;;
59147;SDS011;44930;52.878;6.168;2022-12-24T03:54:17;34.72;;;4.30;;
59147;SDS011;44930;52.878;6.168;2022-12-24T03:56:43;34.17;;;5.35;;
59147;SDS011;44930;52.878;6.168;2022-12-24T03:59:08;30.08;;;4.57;;
59147;SDS011;44930;52.878;6.168;2022-12-24T04:01:34;31.48;;;5.70;;
59147;SDS011;44930;52.878;6.168;2022-12-24T04:04:00;35.85;;;4.90;;
59147;SDS011;44930;52.878;6.168;2022-12-24T04:06:25;41.88;;;6.05;;
59147;SDS011;44930;52.878;6.168;2022-12-24T04:08:51;31.55;;;5.70;;
59147;SDS011;44930;52.878;6.168;2022-12-24T04:11:17;38.25;;;5.80;;
59147;SDS011;44930;52.878;6.168;2022-12-24T04:13:43;45.30;;;7.38;;
59147;SDS011;44930;52.878;6.168;2022-12-24T04:16:10;34.45;;;6.05;;
59147;SDS011;44930;52.878;6.168;2022-12-24T04:18:37;38.53;;;5.93;;
59147;SDS011;44930;52.878;6.168;2022-12-24T04:21:04;28.88;;;5.13;;
59147;SDS011;44930;52.878;6.168;2022-12-24T04:23:31;34.03;;;6.90;;
59147;SDS011;44930;52.878;6.168;2022-12-24T04:26:02;36.10;;;5.22;;
59147;SDS011;44930;52.878;6.168;2022-12-24T04:28:30;43.72;;;7.43;;
59147;SDS011;44930;52.878;6.168;2022-12-24T04:30:59;39.92;;;5.82;;
59147;SDS011;44930;52.878;6.168;2022-12-24T04:33:32;41.55;;;6.32;;
59147;SDS011;44930;52.878;6.168;2022-12-24T04:35:59;34.80;;;6.55;;
59147;SDS011;44930;52.878;6.168;2022-12-24T04:38:26;41.10;;;6.32;;
59147;SDS011;44930;52.878;6.168;2022-12-24T04:40:59;39.70;;;6.13;;
59147;SDS011;44930;52.878;6.168;2022-12-24T04:43:26;38.38;;;6.60;;
59147;SDS011;44930;52.878;6.168;2022-12-24T04:45:52;38.22;;;6.07;;
59147;SDS011;44930;52.878;6.168;2022-12-24T04:48:17;42.85;;;5.93;;
59147;SDS011;44930;52.878;6.168;2022-12-24T04:50:43;42.45;;;6.20;;
59147;SDS011;44930;52.878;6.168;2022-12-24T04:53:08;42.28;;;6.18;;
59147;SDS011;44930;52.878;6.168;2022-12-24T04:55:34;51.38;;;6.47;;
59147;SDS011;44930;52.878;6.168;2022-12-24T04:57:59;42.03;;;6.35;;
59147;SDS011;44930;52.878;6.168;2022-12-24T05:00:25;39.15;;;5.93;;
59147;SDS011;44930;52.878;6.168;2022-12-24T05:02:51;41.25;;;6.03;;
59147;SDS011;44930;52.878;6.168;2022-12-24T05:05:17;38.28;;;5.40;;
59147;SDS011;44930;52.878;6.168;2022-12-24T05:07:42;40.33;;;7.28;;
59147;SDS011;44930;52.878;6.168;2022-12-24T05:10:08;35.70;;;6.47;;
59147;SDS011;44930;52.878;6.168;2022-12-24T05:12:35;34.10;;;5.68;;
59147;SDS011;44930;52.878;6.168;2022-12-24T05:15:00;29.65;;;7.13;;
59147;SDS011;44930;52.878;6.168;2022-12-24T05:17:26;33.08;;;4.35;;
59147;SDS011;44930;52.878;6.168;2022-12-24T05:19:51;41.60;;;4.82;;
59147;SDS011;44930;52.878;6.168;2022-12-24T05:22:17;30.33;;;6.18;;
59147;SDS011;44930;52.878;6.168;2022-12-24T05:25:01;36.40;;;5.88;;
59147;SDS011;44930;52.878;6.168;2022-12-24T05:27:45;32.92;;;5.78;;
59147;SDS011;44930;52.878;6.168;2022-12-24T05:30:11;35.47;;;5.97;;
59147;SDS011;44930;52.878;6.168;2022-12-24T05:32:37;35.60;;;6.63;;
59147;SDS011;44930;52.878;6.168;2022-12-24T05:35:02;32.83;;;8.23;;
59147;SDS011;44930;52.878;6.168;2022-12-24T05:37:28;24.92;;;5.20;;
59147;SDS011;44930;52.878;6.168;2022-12-24T05:39:53;42.95;;;6.68;;
59147;SDS011;44930;52.878;6.168;2022-12-24T05:42:19;38.50;;;6.88;;
59147;SDS011;44930;52.878;6.168;2022-12-24T05:44:45;42.75;;;5.65;;
59147;SDS011;44930;52.878;6.168;2022-12-24T05:47:10;37.95;;;6.95;;
59147;SDS011;44930;52.878;6.168;2022-12-24T05:49:36;41.47;;;7.72;;
59147;SDS011;44930;52.878;6.168;2022-12-24T05:52:01;36.78;;;8.18;;
59147;SDS011;44930;52.878;6.168;2022-12-24T05:54:27;31.23;;;4.70;;
59147;SDS011;44930;52.878;6.168;2022-12-24T05:56:52;42.42;;;6.43;;
59147;SDS011;44930;52.878;6.168;2022-12-24T05:59:18;37.10;;;5.93;;
59147;SDS011;44930;52.878;6.168;2022-12-24T06:01:43;33.88;;;6.43;;
59147;SDS011;44930;52.878;6.168;2022-12-24T06:04:11;38.92;;;5.78;;
59147;SDS011;44930;52.878;6.168;2022-12-24T06:06:37;44.85;;;7.10;;
59147;SDS011;44930;52.878;6.168;2022-12-24T06:09:03;46.25;;;7.57;;
59147;SDS011;44930;52.878;6.168;2022-12-24T06:11:28;32.78;;;5.82;;
59147;SDS011;44930;52.878;6.168;2022-12-24T06:13:55;45.60;;;5.95;;
59147;SDS011;44930;52.878;6.168;2022-12-24T06:16:22;38.83;;;5.97;;
59147;SDS011;44930;52.878;6.168;2022-12-24T06:18:48;45.85;;;7.72;;
59147;SDS011;44930;52.878;6.168;2022-12-24T06:21:14;30.40;;;5.35;;
59147;SDS011;44930;52.878;6.168;2022-12-24T06:23:41;48.88;;;6.78;;
59147;SDS011;44930;52.878;6.168;2022-12-24T06:26:09;36.60;;;6.68;;
59147;SDS011;44930;52.878;6.168;2022-12-24T06:28:37;43.15;;;6.50;;
59147;SDS011;44930;52.878;6.168;2022-12-24T06:31:03;38.28;;;6.15;;
59147;SDS011;44930;52.878;6.168;2022-12-24T06:33:30;39.47;;;5.68;;
59147;SDS011;44930;52.878;6.168;2022-12-24T06:35:56;44.97;;;7.32;;
59147;SDS011;44930;52.878;6.168;2022-12-24T06:38:21;34.13;;;5.35;;
59147;SDS011;44930;52.878;6.168;2022-12-24T06:40:47;37.50;;;6.32;;
59147;SDS011;44930;52.878;6.168;2022-12-24T06:43:13;36.67;;;5.55;;
59147;SDS011;44930;52.878;6.168;2022-12-24T06:45:39;36.88;;;5.57;;
59147;SDS011;44930;52.878;6.168;2022-12-24T06:48:08;45.38;;;6.78;;
59147;SDS011;44930;52.878;6.168;2022-12-24T06:50:33;38.90;;;6.50;;
59147;SDS011;44930;52.878;6.168;2022-12-24T06:52:59;46.75;;;6.82;;
59147;SDS011;44930;52.878;6.168;2022-12-24T06:55:25;41.22;;;6.43;;
59147;SDS011;44930;52.878;6.168;2022-12-24T06:57:51;40.17;;;6.03;;
59147;SDS011;44930;52.878;6.168;2022-12-24T07:00:16;39.70;;;5.53;;
59147;SDS011;44930;52.878;6.168;2022-12-24T07:02:42;34.65;;;6.35;;
59147;SDS011;44930;52.878;6.168;2022-12-24T07:05:12;34.25;;;6.03;;
59147;SDS011;44930;52.878;6.168;2022-12-24T07:07:41;46.47;;;6.00;;
59147;SDS011;44930;52.878;6.168;2022-12-24T07:10:12;24.90;;;3.92;;
59147;SDS011;44930;52.878;6.168;2022-12-24T07:12:39;41.65;;;5.53;;
59147;SDS011;44930;52.878;6.168;2022-12-24T07:15:06;40.15;;;6.03;;
59147;SDS011;44930;52.878;6.168;2022-12-24T07:17:31;44.58;;;6.68;;
59147;SDS011;44930;52.878;6.168;2022-12-24T07:19:57;47.03;;;5.90;;
59147;SDS011;44930;52.878;6.168;2022-12-24T07:22:23;35.20;;;6.53;;
59147;SDS011;44930;52.878;6.168;2022-12-24T07:24:48;37.10;;;6.43;;
59147;SDS011;44930;52.878;6.168;2022-12-24T07:27:14;37.17;;;6.45;;
59147;SDS011;44930;52.878;6.168;2022-12-24T07:29:40;25.38;;;4.32;;
59147;SDS011;44930;52.878;6.168;2022-12-24T07:32:05;37.08;;;5.43;;
59147;SDS011;44930;52.878;6.168;2022-12-24T07:34:31;36.45;;;4.45;;
59147;SDS011;44930;52.878;6.168;2022-12-24T07:36:56;33.65;;;7.22;;
59147;SDS011;44930;52.878;6.168;2022-12-24T07:39:22;34.95;;;5.85;;
59147;SDS011;44930;52.878;6.168;2022-12-24T07:41:48;29.73;;;5.38;;
59147;SDS011;44930;52.878;6.168;2022-12-24T07:44:14;34.60;;;6.82;;
59147;SDS011;44930;52.878;6.168;2022-12-24T07:46:41;36.67;;;6.50;;
59147;SDS011;44930;52.878;6.168;2022-12-24T07:49:06;34.42;;;5.57;;
59147;SDS011;44930;52.878;6.168;2022-12-24T07:51:32;35.28;;;5.15;;
59147;SDS011;44930;52.878;6.168;2022-12-24T07:53:58;31.35;;;5.00;;
59147;SDS011;44930;52.878;6.168;2022-12-24T07:56:24;36.03;;;5.57;;
59147;SDS011;44930;52.878;6.168;2022-12-24T07:58:50;37.35;;;5.85;;
59147;SDS011;44930;52.878;6.168;2022-12-24T08:01:15;40.33;;;6.82;;
59147;SDS011;44930;52.878;6.168;2022-12-24T08:03:41;41.80;;;6.93;;
59147;SDS011;44930;52.878;6.168;2022-12-24T08:06:08;31.00;;;5.38;;
59147;SDS011;44930;52.878;6.168;2022-12-24T08:08:35;23.75;;;4.00;;
59147;SDS011;44930;52.878;6.168;2022-12-24T08:11:01;37.63;;;5.68;;
59147;SDS011;44930;52.878;6.168;2022-12-24T08:13:28;37.47;;;5.80;;
59147;SDS011;44930;52.878;6.168;2022-12-24T08:15:54;39.50;;;6.30;;
59147;SDS011;44930;52.878;6.168;2022-12-24T08:18:20;31.23;;;7.10;;
59147;SDS011;44930;52.878;6.168;2022-12-24T08:20:45;35.17;;;6.03;;
59147;SDS011;44930;52.878;6.168;2022-12-24T08:23:11;36.83;;;7.90;;
59147;SDS011;44930;52.878;6.168;2022-12-24T08:25:37;41.65;;;5.80;;
59147;SDS011;44930;52.878;6.168;2022-12-24T08:28:07;39.65;;;7.13;;
59147;SDS011;44930;52.878;6.168;2022-12-24T08:30:32;38.95;;;5.60;;
59147;SDS011;44930;52.878;6.168;2022-12-24T08:32:58;38.58;;;5.53;;
59147;SDS011;44930;52.878;6.168;2022-12-24T08:35:24;34.42;;;6.78;;
59147;SDS011;44930;52.878;6.168;2022-12-24T08:37:49;34.78;;;7.20;;
59147;SDS011;44930;52.878;6.168;2022-12-24T08:40:15;30.17;;;6.45;;
59147;SDS011;44930;52.878;6.168;2022-12-24T08:42:41;39.45;;;5.72;;
59147;SDS011;44930;52.878;6.168;2022-12-24T08:45:06;43.40;;;7.13;;
59147;SDS011;44930;52.878;6.168;2022-12-24T08:47:33;37.15;;;7.40;;
59147;SDS011;44930;52.878;6.168;2022-12-24T08:49:59;42.08;;;6.32;;
59147;SDS011;44930;52.878;6.168;2022-12-24T08:52:24;36.53;;;7.95;;
59147;SDS011;44930;52.878;6.168;2022-12-24T08:54:50;49.30;;;6.90;;
59147;SDS011;44930;52.878;6.168;2022-12-24T08:57:16;48.67;;;8.20;;
59147;SDS011;44930;52.878;6.168;2022-12-24T08:59:41;45.92;;;8.05;;
59147;SDS011;44930;52.878;6.168;2022-12-24T09:02:07;47.25;;;7.05;;
59147;SDS011;44930;52.878;6.168;2022-12-24T09:04:36;40.72;;;6.90;;
59147;SDS011;44930;52.878;6.168;2022-12-24T09:07:04;40.72;;;8.40;;
59147;SDS011;44930;52.878;6.168;2022-12-24T09:09:30;42.22;;;7.13;;
59147;SDS011;44930;52.878;6.168;2022-12-24T09:11:56;47.17;;;6.20;;
59147;SDS011;44930;52.878;6.168;2022-12-24T09:14:21;42.33;;;7.03;;
59147;SDS011;44930;52.878;6.168;2022-12-24T09:16:47;35.90;;;6.22;;
59147;SDS011;44930;52.878;6.168;2022-12-24T09:19:12;41.75;;;6.28;;
59147;SDS011;44930;52.878;6.168;2022-12-24T09:21:38;32.42;;;7.07;;
59147;SDS011;44930;52.878;6.168;2022-12-24T09:24:03;43.42;;;7.00;;
59147;SDS011;44930;52.878;6.168;2022-12-24T09:26:29;35.67;;;5.70;;
59147;SDS011;44930;52.878;6.168;2022-12-24T09:28:56;41.35;;;5.50;;
59147;SDS011;44930;52.878;6.168;2022-12-24T09:31:23;35.70;;;6.38;;
59147;SDS011;44930;52.878;6.168;2022-12-24T09:33:49;36.15;;;6.13;;
59147;SDS011;44930;52.878;6.168;2022-12-24T09:36:15;40.67;;;5.10;;
59147;SDS011;44930;52.878;6.168;2022-12-24T09:38:41;37.95;;;5.82;;
59147;SDS011;44930;52.878;6.168;2022-12-24T09:41:11;33.55;;;5.78;;
59147;SDS011;44930;52.878;6.168;2022-12-24T09:43:37;32.33;;;5.10;;
59147;SDS011;44930;52.878;6.168;2022-12-24T09:48:33;31.90;;;5.45;;
59147;SDS011;44930;52.878;6.168;2022-12-24T09:51:02;27.98;;;4.35;;
59147;SDS011;44930;52.878;6.168;2022-12-24T09:53:33;39.45;;;5.05;;
59147;SDS011;44930;52.878;6.168;2022-12-24T09:56:13;34.17;;;4.63;;
59147;SDS011;44930;52.878;6.168;2022-12-24T09:58:47;28.02;;;5.03;;
59147;SDS011;44930;52.878;6.168;2022-12-24T10:01:30;25.05;;;4.65;;
59147;SDS011;44930;52.878;6.168;2022-12-24T10:03:57;40.85;;;5.75;;
59147;SDS011;44930;52.878;6.168;2022-12-24T10:06:30;44.08;;;6.80;;
59147;SDS011;44930;52.878;6.168;2022-12-24T10:15:04;30.88;;;5.43;;
59147;SDS011;44930;52.878;6.168;2022-12-24T10:25:47;30.58;;;6.88;;
59147;SDS011;44930;52.878;6.168;2022-12-24T10:28:28;36.85;;;7.32;;
59147;SDS011;44930;52.878;6.168;2022-12-24T10:31:06;38.17;;;7.72;;
59147;SDS011;44930;52.878;6.168;2022-12-24T10:33:43;35.90;;;6.55;;
59147;SDS011;44930;52.878;6.168;2022-12-24T10:36:14;32.13;;;5.60;;
59147;SDS011;44930;52.878;6.168;2022-12-24T10:38:43;31.50;;;4.63;;
59147;SDS011;44930;52.878;6.168;2022-12-24T10:41:10;27.25;;;4.85;;
59147;SDS011;44930;52.878;6.168;2022-12-24T10:43:37;24.40;;;5.88;;
59147;SDS011;44930;52.878;6.168;2022-12-24T10:46:09;33.78;;;6.07;;
59147;SDS011;44930;52.878;6.168;2022-12-24T10:48:44;35.78;;;6.10;;
59147;SDS011;44930;52.878;6.168;2022-12-24T10:51:19;29.08;;;4.93;;
59147;SDS011;44930;52.878;6.168;2022-12-24T10:53:48;31.70;;;5.75;;
59147;SDS011;44930;52.878;6.168;2022-12-24T10:56:21;38.45;;;5.45;;
59147;SDS011;44930;52.878;6.168;2022-12-24T10:58:52;31.85;;;5.50;;
59147;SDS011;44930;52.878;6.168;2022-12-24T11:01:19;36.75;;;4.88;;
59147;SDS011;44930;52.878;6.168;2022-12-24T11:04:05;34.85;;;5.68;;
59147;SDS011;44930;52.878;6.168;2022-12-24T11:06:50;31.85;;;8.23;;
59147;SDS011;44930;52.878;6.168;2022-12-24T11:09:20;38.33;;;6.32;;
59147;SDS011;44930;52.878;6.168;2022-12-24T11:11:57;25.63;;;4.95;;
59147;SDS011;44930;52.878;6.168;2022-12-24T11:14:25;34.78;;;5.82;;
59147;SDS011;44930;52.878;6.168;2022-12-24T11:16:57;36.03;;;5.72;;
59147;SDS011;44930;52.878;6.168;2022-12-24T11:19:25;38.72;;;7.72;;
59147;SDS011;44930;52.878;6.168;2022-12-24T11:22:02;34.90;;;6.10;;
59147;SDS011;44930;52.878;6.168;2022-12-24T11:24:34;41.35;;;5.38;;
59147;SDS011;44930;52.878;6.168;2022-12-24T11:32:40;34.35;;;4.93;;
59147;SDS011;44930;52.878;6.168;2022-12-24T11:35:14;40.20;;;6.03;;
59147;SDS011;44930;52.878;6.168;2022-12-24T11:37:40;25.50;;;4.88;;
59147;SDS011;44930;52.878;6.168;2022-12-24T11:40:16;33.88;;;5.60;;
59147;SDS011;44930;52.878;6.168;2022-12-24T11:42:47;35.20;;;6.03;;
59147;SDS011;44930;52.878;6.168;2022-12-24T11:45:20;26.45;;;5.50;;
59147;SDS011;44930;52.878;6.168;2022-12-24T11:47:48;28.90;;;5.25;;
59147;SDS011;44930;52.878;6.168;2022-12-24T11:50:31;27.20;;;6.18;;
59147;SDS011;44930;52.878;6.168;2022-12-24T11:55:43;31.38;;;5.72;;
59147;SDS011;44930;52.878;6.168;2022-12-24T11:58:24;30.35;;;5.38;;
59147;SDS011;44930;52.878;6.168;2022-12-24T12:00:50;27.17;;;5.13;;
59147;SDS011;44930;52.878;6.168;2022-12-24T12:05:53;22.92;;;4.35;;
59147;SDS011;44930;52.878;6.168;2022-12-24T12:08:19;22.25;;;4.40;;
59147;SDS011;44930;52.878;6.168;2022-12-24T12:10:47;28.55;;;5.15;;
59147;SDS011;44930;52.878;6.168;2022-12-24T12:13:16;28.98;;;6.25;;
59147;SDS011;44930;52.878;6.168;2022-12-24T12:15:57;26.35;;;6.15;;
59147;SDS011;44930;52.878;6.168;2022-12-24T12:18:32;60.83;;;28.45;;
59147;SDS011;44930;52.878;6.168;2022-12-24T12:21:14;22.52;;;4.63;;
59147;SDS011;44930;52.878;6.168;2022-12-24T12:23:56;22.23;;;3.92;;
59147;SDS011;44930;52.878;6.168;2022-12-24T12:26:26;23.02;;;4.72;;
59147;SDS011;44930;52.878;6.168;2022-12-24T12:31:48;23.70;;;4.10;;
59147;SDS011;44930;52.878;6.168;2022-12-24T12:34:54;24.85;;;4.57;;
59147;SDS011;44930;52.878;6.168;2022-12-24T12:37:32;28.90;;;4.68;;
59147;SDS011;44930;52.878;6.168;2022-12-24T12:40:02;24.23;;;5.10;;
59147;SDS011;44930;52.878;6.168;2022-12-24T12:42:36;43.53;;;4.88;;
59147;SDS011;44930;52.878;6.168;2022-12-24T12:50:31;27.63;;;5.23;;
59147;SDS011;44930;52.878;6.168;2022-12-24T12:58:21;32.28;;;6.22;;
59147;SDS011;44930;52.878;6.168;2022-12-24T13:00:55;22.45;;;4.70;;
59147;SDS011;44930;52.878;6.168;2022-12-24T13:03:45;28.10;;;4.47;;
59147;SDS011;44930;52.878;6.168;2022-12-24T13:06:57;30.40;;;5.97;;
59147;SDS011;44930;52.878;6.168;2022-12-24T13:14:50;26.92;;;5.30;;
59147;SDS011;44930;52.878;6.168;2022-12-24T13:22:50;32.58;;;7.43;;
59147;SDS011;44930;52.878;6.168;2022-12-24T13:25:23;26.50;;;4.68;;
59147;SDS011;44930;52.878;6.168;2022-12-24T13:30:48;19.55;;;3.95;;
59147;SDS011;44930;52.878;6.168;2022-12-24T13:36:18;24.45;;;4.78;;
59147;SDS011;44930;52.878;6.168;2022-12-24T13:38:46;23.77;;;4.82;;
59147;SDS011;44930;52.878;6.168;2022-12-24T13:49:17;29.58;;;4.30;;
59147;SDS011;44930;52.878;6.168;2022-12-24T13:51:44;22.90;;;4.05;;
59147;SDS011;44930;52.878;6.168;2022-12-24T13:54:11;23.95;;;5.28;;
59147;SDS011;44930;52.878;6.168;2022-12-24T13:56:38;19.00;;;4.63;;
59147;SDS011;44930;52.878;6.168;2022-12-24T13:59:39;24.60;;;6.70;;
59147;SDS011;44930;52.878;6.168;2022-12-24T14:02:00;19.10;;;4.28;;
59147;SDS011;44930;52.878;6.168;2022-12-24T14:04:27;22.45;;;4.80;;
59147;SDS011;44930;52.878;6.168;2022-12-24T14:06:56;16.15;;;2.63;;
59147;SDS011;44930;52.878;6.168;2022-12-24T14:09:24;17.52;;;3.80;;
59147;SDS011;44930;52.878;6.168;2022-12-24T14:14:33;19.27;;;4.03;;
59147;SDS011;44930;52.878;6.168;2022-12-24T14:17:13;15.20;;;3.17;;
59147;SDS011;44930;52.878;6.168;2022-12-24T14:19:49;22.48;;;2.83;;
59147;SDS011;44930;52.878;6.168;2022-12-24T14:22:27;17.58;;;3.80;;
59147;SDS011;44930;52.878;6.168;2022-12-24T14:25:17;18.83;;;3.28;;
59147;SDS011;44930;52.878;6.168;2022-12-24T14:27:45;19.83;;;3.40;;
59147;SDS011;44930;52.878;6.168;2022-12-24T14:30:24;26.33;;;4.93;;
59147;SDS011;44930;52.878;6.168;2022-12-24T14:32:52;16.17;;;4.15;;
59147;SDS011;44930;52.878;6.168;2022-12-24T14:35:19;19.60;;;4.18;;
59147;SDS011;44930;52.878;6.168;2022-12-24T14:37:48;27.02;;;3.63;;
59147;SDS011;44930;52.878;6.168;2022-12-24T14:40:17;17.27;;;3.60;;
59147;SDS011;44930;52.878;6.168;2022-12-24T14:42:52;19.13;;;3.47;;
59147;SDS011;44930;52.878;6.168;2022-12-24T14:45:31;24.13;;;3.95;;
59147;SDS011;44930;52.878;6.168;2022-12-24T14:50:42;12.35;;;2.88;;
59147;SDS011;44930;52.878;6.168;2022-12-24T14:56:17;22.42;;;4.35;;
59147;SDS011;44930;52.878;6.168;2022-12-24T14:58:44;16.35;;;3.45;;
59147;SDS011;44930;52.878;6.168;2022-12-24T15:01:21;12.52;;;2.72;;
59147;SDS011;44930;52.878;6.168;2022-12-24T15:06:27;19.83;;;4.88;;
59147;SDS011;44930;52.878;6.168;2022-12-24T15:08:56;14.95;;;3.63;;
59147;SDS011;44930;52.878;6.168;2022-12-24T15:11:22;20.13;;;3.72;;
59147;SDS011;44930;52.878;6.168;2022-12-24T15:13:48;19.02;;;4.10;;
59147;SDS011;44930;52.878;6.168;2022-12-24T15:16:21;20.52;;;3.08;;
59147;SDS011;44930;52.878;6.168;2022-12-24T15:18:52;20.35;;;3.55;;
59147;SDS011;44930;52.878;6.168;2022-12-24T15:21:27;18.92;;;3.50;;
59147;SDS011;44930;52.878;6.168;2022-12-24T15:23:58;20.63;;;3.70;;
59147;SDS011;44930;52.878;6.168;2022-12-24T15:26:28;17.60;;;4.40;;
59147;SDS011;44930;52.878;6.168;2022-12-24T15:29:01;18.88;;;4.20;;
59147;SDS011;44930;52.878;6.168;2022-12-24T15:31:41;18.60;;;4.93;;
59147;SDS011;44930;52.878;6.168;2022-12-24T15:34:23;26.05;;;5.28;;
59147;SDS011;44930;52.878;6.168;2022-12-24T15:36:49;17.70;;;4.60;;
59147;SDS011;44930;52.878;6.168;2022-12-24T15:39:16;24.92;;;3.40;;
59147;SDS011;44930;52.878;6.168;2022-12-24T15:41:42;32.03;;;11.70;;
59147;SDS011;44930;52.878;6.168;2022-12-24T15:45:06;21.52;;;4.78;;
59147;SDS011;44930;52.878;6.168;2022-12-24T15:47:41;22.45;;;3.97;;
59147;SDS011;44930;52.878;6.168;2022-12-24T15:50:18;22.83;;;5.38;;
59147;SDS011;44930;52.878;6.168;2022-12-24T15:52:47;23.13;;;7.93;;
59147;SDS011;44930;52.878;6.168;2022-12-24T15:55:24;32.95;;;13.45;;
59147;SDS011;44930;52.878;6.168;2022-12-24T15:57:50;38.50;;;16.85;;
59147;SDS011;44930;52.878;6.168;2022-12-24T16:00:23;33.70;;;9.93;;
59147;SDS011;44930;52.878;6.168;2022-12-24T16:02:51;24.90;;;7.93;;
59147;SDS011;44930;52.878;6.168;2022-12-24T16:10:40;20.40;;;8.90;;
59147;SDS011;44930;52.878;6.168;2022-12-24T16:13:10;21.92;;;5.55;;
59147;SDS011;44930;52.878;6.168;2022-12-24T16:15:46;19.58;;;4.80;;
59147;SDS011;44930;52.878;6.168;2022-12-24T16:18:27;22.17;;;4.60;;
59147;SDS011;44930;52.878;6.168;2022-12-24T16:21:01;23.48;;;6.43;;
59147;SDS011;44930;52.878;6.168;2022-12-24T16:23:30;24.30;;;4.35;;
59147;SDS011;44930;52.878;6.168;2022-12-24T16:26:01;25.33;;;4.57;;
59147;SDS011;44930;52.878;6.168;2022-12-24T16:28:27;27.02;;;5.18;;
59147;SDS011;44930;52.878;6.168;2022-12-24T16:30:52;26.98;;;4.90;;